Time;durP1;ratioP1;P1;durP2;ratioP2;P2;SDS_P1;SDS_P2;PMS_P1;PMS_P2;Temp;Humidity;BMP_temperature;BMP_pressure;BME280_temperature;BME280_humidity;BME280_pressure;Samples;Min_cycle;Max_cycle;Signal;HPM_P1;HPM_P2
2022/06/22 00:02:54;;;;;;;;;;;;;;;16.03;46.41;100409.81;4927596;28;98259;-65
2022/06/22 00:06:08;;;;;;;;;;;;;;;15.97;46.47;100414.56;4945025;28;98387;-61
2022/06/22 00:09:00;;;;;;;;;;;;;;;15.91;46.48;100416.59;4943304;28;100037;-61
2022/06/22 00:11:53;;;;;;;;;;;;;;;15.86;46.45;100422.13;4957419;28;98162;-61
2022/06/22 00:14:51;;;;;;;;;;;;;;;15.82;46.47;100429.28;4941955;28;98411;-61
2022/06/22 00:18:02;;;;;;;;;;;;;;;15.82;46.62;100417.59;4941507;28;98185;-64
2022/06/22 00:20:56;;;;;;;;;;;;;;;15.82;46.63;100417.59;4949739;28;98276;-65
2022/06/22 00:24:07;;;;;;;;;;;;;;;15.81;46.99;100422.25;4960538;28;98485;-65
2022/06/22 00:27:05;;;;;;;;;;;;;;;15.77;47.24;100425.88;4962875;28;98528;-61
2022/06/22 00:30:32;;;;;;;;;;;;;;;15.73;46.98;100416.72;4976115;28;98711;-61
2022/06/22 00:33:56;;;;;;;;;;;;;;;15.67;47.09;100413.28;4956448;28;98100;-61
2022/06/22 00:36:49;;;;;;;;;;;;;;;15.61;47.61;100404.41;4968468;28;98346;-66
2022/06/22 00:39:54;;;;;;;;;;;;;;;15.58;47.25;100409.66;4962298;28;98755;-64
2022/06/22 00:43:06;;;;;;;;;;;;;;;15.55;47.46;100399.38;4939811;28;98306;-61
2022/06/22 00:45:58;;;;;;;;;;;;;;;15.53;47.68;100402.41;4955389;28;98012;-61
2022/06/22 00:49:13;;;;;;;;;;;;;;;15.54;47.84;100401.28;4941390;28;98160;-61
2022/06/22 00:52:06;;;;;;;;;;;;;;;15.53;47.81;100402.41;4951452;28;98306;-66
2022/06/22 00:55:00;;;;;;;;;;;;;;;15.53;48.22;100399.69;4983838;28;98393;-61
2022/06/22 00:58:05;;;;;;;;;;;;;;;15.53;47.96;100398.88;4963828;28;97908;-61
2022/06/22 01:01:18;;;;;;;;;;;;;;;15.51;48.12;100398.38;4948926;28;98163;-61
2022/06/22 01:04:46;;;;;;;;;;;;;;;15.44;48.38;100396.03;4946293;28;100327;-64
2022/06/22 01:08:03;;;;;;;;;;;;;;;15.33;48.79;100394.66;4938731;28;98236;-61
2022/06/22 01:12:16;;;;;;;;;;;;;;;15.25;48.56;100384.47;4938390;28;98232;-61
2022/06/22 01:14:27;;;;;;;;;;;;;;;15.19;48.74;100375.63;4949774;28;98315;-61
2022/06/22 01:17:43;;;;;;;;;;;;;;;15.12;49.11;100373.28;4961659;28;98597;-64
2022/06/22 01:21:10;;;;;;;;;;;;;;;15.00;49.52;100364.81;4956908;28;99402;-61
2022/06/22 01:24:29;;;;;;;;;;;;;;;14.88;49.41;100370.72;4941603;28;97992;-64
2022/06/22 01:27:51;;;;;;;;;;;;;;;14.78;49.09;100367.41;4961392;28;98019;-64
2022/06/22 01:31:13;;;;;;;;;;;;;;;14.70;49.53;100364.28;4961155;28;98103;-61
2022/06/22 01:34:07;;;;;;;;;;;;;;;14.63;49.41;100353.00;4960718;28;99525;-65
2022/06/22 01:37:00;;;;;;;;;;;;;;;14.56;49.63;100351.75;4971609;28;98054;-64
2022/06/22 01:39:52;;;;;;;;;;;;;;;14.48;49.76;100347.78;4961899;28;97959;-61
2022/06/22 01:43:01;;;;;;;;;;;;;;;14.41;49.75;100348.16;4942009;28;98142;-65
2022/06/22 01:46:04;;;;;;;;;;;;;;;14.37;49.86;100346.31;4955608;28;98087;-64
2022/06/22 01:49:05;;;;;;;;;;;;;;;14.35;49.53;100341.22;4961717;28;98222;-61
2022/06/22 01:51:59;;;;;;;;;;;;;;;14.34;49.87;100346.91;4957116;28;98171;-61
2022/06/22 01:55:19;;;;;;;;;;;;;;;14.29;49.71;100336.16;4961564;28;98060;-61
2022/06/22 01:58:23;;;;;;;;;;;;;;;14.22;50.06;100339.22;4957119;28;98513;-61
2022/06/22 02:01:29;;;;;;;;;;;;;;;14.17;49.97;100356.38;4941688;28;97858;-64
2022/06/22 02:04:31;;;;;;;;;;;;;;;14.15;49.84;100345.03;4942758;28;97839;-64
2022/06/22 02:11:37;;;;;;;;;;;;;;;14.09;50.45;100332.66;4971247;28;98196;-61
2022/06/22 02:14:30;;;;;;;;;;;;;;;14.08;50.45;100347.31;4948184;28;98189;-64
2022/06/22 02:17:23;;;;;;;;;;;;;;;14.15;50.09;100342.34;4959203;28;98193;-65
2022/06/22 02:20:35;;;;;;;;;;;;;;;14.24;50.17;100345.97;4940822;28;99746;-60
2022/06/22 02:23:39;;;;;;;;;;;;;;;14.32;50.16;100354.56;4934831;28;98896;-64
2022/06/22 02:27:02;;;;;;;;;;;;;;;14.33;50.10;100359.66;4954624;28;98152;-64
2022/06/22 02:30:17;;;;;;;;;;;;;;;14.34;49.83;100361.28;4938454;28;98173;-60
2022/06/22 02:33:09;;;;;;;;;;;;;;;14.34;49.55;100349.63;4942174;28;98381;-64
2022/06/22 02:36:02;;;;;;;;;;;;;;;14.34;49.66;100350.44;4947170;28;99265;-60
2022/06/22 02:38:55;;;;;;;;;;;;;;;14.35;49.98;100353.97;4960662;28;98176;-61
2022/06/22 02:44:51;;;;;;;;;;;;;;;14.30;50.06;100345.91;4956781;28;98005;-61
2022/06/22 02:47:45;;;;;;;;;;;;;;;14.28;49.90;100348.91;4959871;28;98535;-60
2022/06/22 02:51:00;;;;;;;;;;;;;;;14.29;50.04;100341.59;4971521;28;99681;-64
2022/06/22 02:53:53;;;;;;;;;;;;;;;14.31;49.92;100334.78;4947174;28;97982;-61
2022/06/22 02:56:56;;;;;;;;;;;;;;;14.30;50.26;100329.63;4939927;28;98547;-61
2022/06/22 02:59:48;;;;;;;;;;;;;;;14.24;50.14;100323.50;4925234;28;97854;-64
2022/06/22 03:02:32;;;;;;;;;;;;;;;14.19;49.90;100321.66;4953954;28;98386;-61
2022/06/22 03:05:25;;;;;;;;;;;;;;;14.20;50.19;100330.59;4944020;28;98231;-61
2022/06/22 03:08:19;;;;;;;;;;;;;;;14.20;49.89;100323.28;4944351;28;98063;-61
2022/06/22 03:11:29;;;;;;;;;;;;;;;14.23;49.83;100319.19;4945672;28;99026;-64
2022/06/22 03:14:57;;;;;;;;;;;;;;;14.24;49.77;100312.66;4962704;28;97643;-61
2022/06/22 03:17:59;;;;;;;;;;;;;;;14.24;49.99;100318.88;4943987;28;98358;-61
2022/06/22 03:20:54;;;;;;;;;;;;;;;14.22;49.92;100317.53;4929090;28;98407;-64
2022/06/22 03:24:06;;;;;;;;;;;;;;;14.16;50.40;100313.31;4965086;28;98891;-65
2022/06/22 03:27:10;;;;;;;;;;;;;;;14.13;50.48;100313.91;4962825;28;98116;-64
2022/06/22 03:30:12;;;;;;;;;;;;;;;14.09;50.36;100318.31;4963987;28;97818;-64
2022/06/22 03:33:14;;;;;;;;;;;;;;;14.06;50.68;100327.81;4945515;28;98494;-60
2022/06/22 03:36:25;;;;;;;;;;;;;;;14.03;50.88;100324.88;4951915;28;98342;-64
2022/06/22 03:39:47;;;;;;;;;;;;;;;14.02;50.99;100331.41;4965394;28;97901;-60
2022/06/22 03:43:14;;;;;;;;;;;;;;;13.98;51.07;100318.44;4948871;28;98864;-64
2022/06/22 03:46:19;;;;;;;;;;;;;;;13.97;50.97;100316.84;4950308;28;99221;-61
2022/06/22 03:49:26;;;;;;;;;;;;;;;13.98;50.98;100312.22;4963412;28;98311;-61
2022/06/22 03:52:32;;;;;;;;;;;;;;;14.03;50.77;100322.16;4965126;28;97872;-61
2022/06/22 03:55:36;;;;;;;;;;;;;;;14.12;50.75;100307.69;4928278;28;97744;-61
2022/06/22 03:58:29;;;;;;;;;;;;;;;14.23;50.92;100308.34;4947011;28;98366;-61
2022/06/22 04:01:22;;;;;;;;;;;;;;;14.35;50.91;100316.00;4941982;28;98561;-60
2022/06/22 04:04:15;;;;;;;;;;;;;;;14.40;50.98;100310.50;4944717;28;99424;-64
2022/06/22 04:07:09;;;;;;;;;;;;;;;14.40;50.89;100307.78;4943549;28;97983;-63
2022/06/22 04:10:03;;;;;;;;;;;;;;;14.38;51.43;100308.09;4945815;28;98560;-61
2022/06/22 04:12:57;;;;;;;;;;;;;;;14.41;51.03;100315.63;4964444;28;98903;-61
2022/06/22 04:16:08;;;;;;;;;;;;;;;14.45;51.11;100313.91;4959405;28;98165;-61
2022/06/22 04:19:03;;;;;;;;;;;;;;;14.51;50.97;100316.59;4946182;28;98003;-61
2022/06/22 04:22:07;;;;;;;;;;;;;;;14.54;51.22;100319.53;4944552;28;98811;-64
2022/06/22 04:25:16;;;;;;;;;;;;;;;14.60;50.97;100306.66;4948712;28;98298;-60
2022/06/22 04:28:19;;;;;;;;;;;;;;;14.64;50.93;100305.78;4945585;28;98269;-61
2022/06/22 04:31:49;;;;;;;;;;;;;;;14.77;51.20;100306.88;4944415;28;98269;-64
2022/06/22 04:34:53;;;;;;;;;;;;;;;14.87;51.22;100304.00;4949681;28;98291;-61
2022/06/22 04:37:55;;;;;;;;;;;;;;;14.95;51.20;100297.09;4922773;28;98350;-61
2022/06/22 04:41:14;;;;;;;;;;;;;;;15.07;50.75;100299.28;4933896;28;97878;-64
2022/06/22 04:44:09;;;;;;;;;;;;;;;15.21;50.79;100305.53;4963157;28;98274;-61
2022/06/22 04:47:04;;;;;;;;;;;;;;;15.35;50.55;100310.97;4961860;28;98319;-61
2022/06/22 04:50:19;;;;;;;;;;;;;;;15.48;50.32;100307.41;4963097;28;98722;-60
2022/06/22 04:53:12;;;;;;;;;;;;;;;15.65;50.45;100302.19;4947766;28;98403;-64
2022/06/22 04:56:04;;;;;;;;;;;;;;;15.80;50.21;100305.69;4955641;28;97819;-60
2022/06/22 04:59:18;;;;;;;;;;;;;;;15.98;49.98;100299.28;4944140;28;98402;-65
2022/06/22 05:02:20;;;;;;;;;;;;;;;16.20;49.79;100299.31;4943671;28;98173;-64
2022/06/22 05:05:16;;;;;;;;;;;;;;;16.42;49.75;100297.69;4951920;28;98056;-60
2022/06/22 05:08:30;;;;;;;;;;;;;;;16.62;49.62;100299.91;4948500;28;97859;-69
2022/06/22 05:11:43;;;;;;;;;;;;;;;16.87;51.13;100303.13;4927481;28;98920;-66
2022/06/22 05:14:39;;;;;;;;;;;;;;;17.08;51.60;100304.16;4931109;28;98577;-65
2022/06/22 05:17:52;;;;;;;;;;;;;;;17.28;51.89;100300.06;4959366;28;98061;-65
2022/06/22 05:20:55;;;;;;;;;;;;;;;17.49;51.73;100300.28;4959717;28;98770;-65
2022/06/22 05:23:48;;;;;;;;;;;;;;;17.73;51.87;100304.50;4959653;28;98437;-65
2022/06/22 05:26:41;;;;;;;;;;;;;;;17.98;51.82;100308.38;4933562;28;98743;-64
2022/06/22 05:29:35;;;;;;;;;;;;;;;18.26;51.79;100323.28;4956563;28;98166;-61
2022/06/22 05:32:30;;;;;;;;;;;;;;;18.53;51.37;100316.69;4941945;28;97807;-66
2022/06/22 05:35:26;;;;;;;;;;;;;;;18.85;51.15;100320.81;4946476;28;98366;-61
2022/06/22 05:38:19;;;;;;;;;;;;;;;19.20;50.74;100317.94;4959865;28;98443;-61
2022/06/22 05:41:11;;;;;;;;;;;;;;;19.57;50.32;100312.75;4951592;28;97958;-64
2022/06/22 05:44:04;;;;;;;;;;;;;;;19.99;49.85;100310.09;4940293;28;97979;-61
2022/06/22 05:46:58;;;;;;;;;;;;;;;20.54;49.11;100304.28;4934635;28;98438;-66
2022/06/22 05:50:03;;;;;;;;;;;;;;;23.31;44.45;100312.06;4939950;28;97909;-61
2022/06/22 05:53:06;;;;;;;;;;;;;;;25.69;40.96;100323.28;4936484;28;98456;-65
2022/06/22 05:56:32;;;;;;;;;;;;;;;27.70;38.52;100328.91;4954064;28;98196;-61
2022/06/22 05:59:34;;;;;;;;;;;;;;;29.62;36.74;100335.31;4927155;28;98370;-65
2022/06/22 06:02:38;;;;;;;;;;;;;;;29.72;36.99;100331.72;4940128;28;99140;-61
2022/06/22 06:05:40;;;;;;;;;;;;;;;29.86;37.10;100334.44;4960601;28;97966;-64
2022/06/22 06:08:53;;;;;;;;;;;;;;;31.84;34.16;100329.91;4959798;28;97731;-61
2022/06/22 06:12:06;;;;;;;;;;;;;;;34.03;31.06;100327.28;4957489;28;98182;-61
2022/06/22 06:15:10;;;;;;;;;;;;;;;34.22;30.89;100322.91;4954300;28;98815;-61
2022/06/22 06:18:03;;;;;;;;;;;;;;;34.00;31.03;100317.78;4939862;28;97843;-61
2022/06/22 06:21:09;;;;;;;;;;;;;;;35.77;28.30;100325.09;4939452;28;98037;-65
2022/06/22 06:24:31;;;;;;;;;;;;;;;35.19;29.41;100311.03;4940266;28;98515;-61
2022/06/22 06:30:59;;;;;;;;;;;;;;;36.43;27.66;100307.94;4950719;28;98372;-60
2022/06/22 06:34:18;;;;;;;;;;;;;;;36.43;26.81;100305.13;4961852;28;97834;-60
2022/06/22 06:37:23;;;;;;;;;;;;;;;36.71;26.15;100300.66;4940866;28;97978;-60
2022/06/22 06:40:16;;;;;;;;;;;;;;;35.91;26.22;100301.47;4943017;28;98357;-63
2022/06/22 06:43:22;;;;;;;;;;;;;;;35.39;26.90;100282.91;4944057;28;98502;-60
2022/06/22 06:46:17;;;;;;;;;;;;;;;34.91;26.74;100282.53;4940429;28;98225;-60
2022/06/22 06:49:31;;;;;;;;;;;;;;;34.56;26.19;100277.81;4960508;28;98377;-60
2022/06/22 06:53:13;;;;;;;;;;;;;;;34.15;26.49;100277.13;4961990;28;98595;-63
2022/06/22 06:56:44;;;;;;;;;;;;;;;33.83;27.02;100276.97;4889645;28;98660;-60
2022/06/22 06:59:39;;;;;;;;;;;;;;;33.57;26.70;100265.53;4862790;28;97968;-64
2022/06/22 07:02:33;;;;;;;;;;;;;;;33.50;27.14;100268.47;4948404;28;98489;-60
2022/06/22 07:05:29;;;;;;;;;;;;;;;33.47;26.51;100267.31;4960085;28;98001;-60
2022/06/22 07:08:24;;;;;;;;;;;;;;;33.49;26.44;100264.09;4944623;28;97833;-64
2022/06/22 07:11:18;;;;;;;;;;;;;;;33.50;26.37;100260.09;4958990;28;97946;-63
2022/06/22 07:14:37;;;;;;;;;;;;;;;33.56;26.12;100271.53;4942912;28;98640;-60
2022/06/22 07:17:32;;;;;;;;;;;;;;;33.69;26.59;100273.25;4953292;28;98272;-63
2022/06/22 07:20:46;;;;;;;;;;;;;;;33.84;26.40;100270.97;4960818;28;98043;-60
2022/06/22 07:24:08;;;;;;;;;;;;;;;34.02;26.17;100273.41;4961793;28;98362;-60
2022/06/22 07:27:01;;;;;;;;;;;;;;;34.13;25.52;100270.38;4942201;28;98170;-60
2022/06/22 07:30:25;;;;;;;;;;;;;;;34.30;24.78;100269.16;4955346;28;98554;-60
2022/06/22 07:33:39;;;;;;;;;;;;;;;34.49;25.16;100272.38;4943276;28;98592;-63
2022/06/22 07:37:09;;;;;;;;;;;;;;;34.65;24.55;100272.38;4953936;28;98240;-60
2022/06/22 07:40:21;;;;;;;;;;;;;;;34.83;24.31;100275.53;4946429;28;98283;-60
2022/06/22 07:43:14;;;;;;;;;;;;;;;35.02;24.46;100268.28;4951310;28;98487;-64
2022/06/22 07:46:07;;;;;;;;;;;;;;;35.21;24.11;100260.97;4952756;28;97753;-65
2022/06/22 07:49:02;;;;;;;;;;;;;;;35.45;24.00;100269.13;4947200;28;97741;-60
2022/06/22 07:51:58;;;;;;;;;;;;;;;35.69;23.61;100267.69;4941358;28;98263;-61
2022/06/22 07:55:09;;;;;;;;;;;;;;;35.96;23.16;100258.06;4941357;28;98191;-64
2022/06/22 07:58:11;;;;;;;;;;;;;;;36.34;22.74;100253.28;4952140;28;97899;-61
2022/06/22 08:01:23;;;;;;;;;;;;;;;36.73;22.55;100254.06;4943817;28;97747;-63
2022/06/22 08:04:18;;;;;;;;;;;;;;;37.23;21.95;100255.19;4942306;28;97857;-65
2022/06/22 08:07:32;;;;;;;;;;;;;;;37.68;21.69;100253.97;4957544;28;98392;-64
2022/06/22 08:10:34;;;;;;;;;;;;;;;38.19;21.70;100250.03;4942091;28;99639;-64
2022/06/22 08:13:27;;;;;;;;;;;;;;;38.69;20.93;100248.78;4937440;28;98045;-64
2022/06/22 08:16:19;;;;;;;;;;;;;;;39.27;20.66;100244.34;4945329;28;98272;-61
2022/06/22 08:19:12;;;;;;;;;;;;;;;39.82;20.76;100243.50;4942579;28;98490;-61
2022/06/22 08:22:15;;;;;;;;;;;;;;;40.35;19.73;100238.13;4942081;28;98143;-61
2022/06/22 08:25:08;;;;;;;;;;;;;;;41.03;19.40;100229.06;4962612;28;97854;-61
2022/06/22 08:28:01;;;;;;;;;;;;;;;41.53;19.02;100220.78;4960769;28;99092;-64
2022/06/22 08:30:53;;;;;;;;;;;;;;;42.06;18.34;100217.06;4953813;28;98070;-61
2022/06/22 08:34:15;;;;;;;;;;;;;;;42.54;18.41;100210.28;4941081;28;98052;-65
2022/06/22 08:37:33;;;;;;;;;;;;;;;42.95;18.18;100216.72;4958039;28;97909;-64
2022/06/22 08:40:35;;;;;;;;;;;;;;;43.42;18.27;100211.81;4967145;28;98142;-61
2022/06/22 08:43:57;;;;;;;;;;;;;;;43.78;17.72;100201.06;4950300;28;98189;-61
2022/06/22 08:47:10;;;;;;;;;;;;;;;44.05;17.50;100199.72;4958444;28;98050;-64
2022/06/22 08:50:36;;;;;;;;;;;;;;;44.64;16.79;100193.34;4961579;28;98001;-61
2022/06/22 08:54:04;;;;;;;;;;;;;;;45.34;16.40;100191.75;4945248;28;98459;-64
2022/06/22 08:57:24;;;;;;;;;;;;;;;45.87;16.15;100187.13;4936650;28;98528;-61
2022/06/22 09:00:34;;;;;;;;;;;;;;;46.38;15.70;100201.22;4956600;28;98899;-61
2022/06/22 09:04:00;;;;;;;;;;;;;;;46.88;15.07;100205.97;4951117;28;98136;-61
2022/06/22 09:07:13;;;;;;;;;;;;;;;47.38;14.68;100187.78;4939223;28;119670;-61
2022/06/22 09:10:06;;;;;;;;;;;;;;;47.62;14.55;100178.50;4940654;28;98249;-64
2022/06/22 09:13:25;;;;;;;;;;;;;;;47.92;14.19;100172.78;4943633;28;98553;-61
2022/06/22 09:17:05;;;;;;;;;;;;;;;48.05;14.25;100175.00;4960532;28;98072;-66
2022/06/22 09:20:24;;;;;;;;;;;;;;;47.89;14.22;100174.63;4956635;28;97913;-61
2022/06/22 09:23:52;;;;;;;;;;;;;;;47.94;14.12;100173.03;4943375;28;98243;-64
2022/06/22 09:27:05;;;;;;;;;;;;;;;47.43;14.51;100159.22;4911451;28;99362;-61
2022/06/22 09:29:57;;;;;;;;;;;;;;;46.91;14.83;100145.06;4940896;28;97767;-65
2022/06/22 09:33:34;;;;;;;;;;;;;;;46.44;15.28;100157.19;4938191;28;98271;-61
2022/06/22 09:36:57;;;;;;;;;;;;;;;45.97;15.38;100156.31;4942734;28;98086;-64
2022/06/22 09:40:14;;;;;;;;;;;;;;;46.01;15.29;100148.28;4949597;28;98008;-64
2022/06/22 09:43:36;;;;;;;;;;;;;;;46.43;14.84;100152.81;4948619;28;98042;-60
2022/06/22 09:46:59;;;;;;;;;;;;;;;47.16;15.01;100152.41;4920697;28;97986;-61
2022/06/22 09:50:44;;;;;;;;;;;;;;;47.96;14.12;100153.28;4939643;28;97946;-63
2022/06/22 09:53:45;;;;;;;;;;;;;;;48.63;13.69;100157.44;4920403;28;98239;-61
2022/06/22 09:57:06;;;;;;;;;;;;;;;49.33;13.38;100163.19;4950611;28;98234;-65
2022/06/22 10:00:29;;;;;;;;;;;;;;;49.43;12.20;100154.94;4939763;28;98394;-63
2022/06/22 10:03:49;;;;;;;;;;;;;;;49.44;12.92;100170.78;4933721;28;98232;-64
2022/06/22 10:07:20;;;;;;;;;;;;;;;49.95;12.68;100162.09;4922000;28;98173;-64
2022/06/22 10:10:42;;;;;;;;;;;;;;;50.58;12.70;100163.16;4956976;28;98298;-62
2022/06/22 10:14:08;;;;;;;;;;;;;;;51.07;12.60;100162.59;4964844;28;98255;-58
2022/06/22 10:17:04;;;;;;;;;;;;;;;51.17;12.40;100163.63;4958828;28;98448;-61
2022/06/22 10:20:50;;;;;;;;;;;;;;;51.09;12.65;100157.03;4960389;28;97991;-62
2022/06/22 10:24:00;;;;;;;;;;;;;;;50.91;12.56;100150.19;4917815;28;97970;-64
2022/06/22 10:27:23;;;;;;;;;;;;;;;51.02;12.51;100149.16;4916682;28;98144;-58
2022/06/22 10:30:43;;;;;;;;;;;;;;;51.10;12.25;100150.00;4919981;28;97945;-58
2022/06/22 10:34:13;;;;;;;;;;;;;;;50.71;12.06;100157.41;4949439;28;98551;-58
2022/06/22 10:37:47;;;;;;;;;;;;;;;49.92;12.76;100146.00;4959846;28;97995;-58
2022/06/22 10:48:01;;;;;;;;;;;;;;;50.53;12.16;100139.03;4912132;28;98092;-59
2022/06/22 10:51:31;;;;;;;;;;;;;;;48.48;13.26;100122.84;4939532;28;97719;-59
2022/06/22 10:55:07;;;;;;;;;;;;;;;46.31;14.27;100125.69;4922766;28;97815;-62
2022/06/22 10:58:16;;;;;;;;;;;;;;;45.27;14.59;100118.31;4928704;28;99354;-62
2022/06/22 11:01:47;;;;;;;;;;;;;;;46.49;14.14;100110.03;4944762;28;97925;-59
2022/06/22 11:04:59;;;;;;;;;;;;;;;47.56;13.40;100117.88;4926267;28;98177;-59
2022/06/22 11:08:19;;;;;;;;;;;;;;;48.46;13.13;100108.31;4919883;28;99120;-59
2022/06/22 11:11:51;;;;;;;;;;;;;;;49.25;12.92;100107.91;4957272;28;99380;-59
2022/06/22 11:15:32;;;;;;;;;;;;;;;47.97;13.25;100096.97;4905072;28;97854;-63
2022/06/22 11:22:09;;;;;;;;;;;;;;;49.15;12.70;100104.72;4925910;28;98164;-59
2022/06/22 11:32:23;;;;;;;;;;;;;;;47.33;13.59;100112.38;4962820;28;97965;-59
2022/06/22 11:35:30;;;;;;;;;;;;;;;46.95;13.39;100114.22;4935563;28;98977;-64
2022/06/22 11:38:53;;;;;;;;;;;;;;;47.56;13.30;100117.88;4934866;28;98158;-63
2022/06/22 11:41:59;;;;;;;;;;;;;;;45.69;14.27;100117.28;4925013;28;98420;-59
2022/06/22 11:48:35;;;;;;;;;;;;;;;43.60;15.48;100102.94;4939046;28;98008;-62
2022/06/22 11:51:38;;;;;;;;;;;;;;;44.55;14.92;100120.50;4952563;28;98565;-59
2022/06/22 11:55:20;;;;;;;;;;;;;;;42.76;15.95;100111.47;4951874;28;97818;-59
2022/06/22 11:59:06;;;;;;;;;;;;;;;43.34;15.33;100111.50;4935229;28;98057;-62
2022/06/22 12:02:16;;;;;;;;;;;;;;;41.07;16.65;100108.22;4854111;28;98071;-61
2022/06/22 12:05:53;;;;;;;;;;;;;;;39.87;17.25;100094.16;4859727;28;98419;-59
2022/06/22 12:09:19;;;;;;;;;;;;;;;38.70;17.61;100097.56;4918813;28;97810;-62
2022/06/22 12:12:58;;;;;;;;;;;;;;;37.70;18.72;100096.13;4942323;28;97859;-62
2022/06/22 12:16:08;;;;;;;;;;;;;;;37.62;18.45;100092.81;4934343;28;98362;-59
2022/06/22 12:19:31;;;;;;;;;;;;;;;37.67;18.26;100094.22;4961755;28;98337;-59
2022/06/22 12:22:58;;;;;;;;;;;;;;;36.66;19.31;100085.91;4947649;28;98182;-59
2022/06/22 12:26:21;;;;;;;;;;;;;;;38.53;18.43;100083.03;4941242;28;97764;-62
2022/06/22 12:29:40;;;;;;;;;;;;;;;40.19;17.16;100089.75;4938878;28;98623;-59
2022/06/22 12:33:13;;;;;;;;;;;;;;;41.17;16.99;100092.69;4940497;28;98469;-59
2022/06/22 12:36:56;;;;;;;;;;;;;;;41.82;16.64;100083.50;4934863;28;98115;-60
2022/06/22 12:39:58;;;;;;;;;;;;;;;40.39;17.24;100085.53;4916504;28;98773;-62
2022/06/22 12:43:09;;;;;;;;;;;;;;;40.03;17.50;100078.88;4962146;28;97849;-59
2022/06/22 12:46:29;;;;;;;;;;;;;;;40.75;17.24;100080.88;4958964;28;98388;-59
2022/06/22 12:49:48;;;;;;;;;;;;;;;41.36;16.82;100078.38;4935358;28;98364;-64
2022/06/22 12:53:03;;;;;;;;;;;;;;;41.57;16.69;100068.69;4938060;28;97939;-62
2022/06/22 12:55:58;;;;;;;;;;;;;;;41.77;16.45;100072.81;4943460;28;98547;-59
2022/06/22 12:59:19;;;;;;;;;;;;;;;40.82;17.25;100067.16;4941976;28;98488;-62
2022/06/22 13:02:12;;;;;;;;;;;;;;;39.46;17.85;100057.09;4954236;28;97963;-59
2022/06/22 13:05:17;;;;;;;;;;;;;;;38.54;18.16;100048.00;4946161;28;97868;-59
2022/06/22 13:08:25;;;;;;;;;;;;;;;38.99;18.22;100058.47;4944056;28;98226;-59
2022/06/22 13:11:21;;;;;;;;;;;;;;;39.52;17.79;100048.75;4961527;28;98515;-62
2022/06/22 13:14:14;;;;;;;;;;;;;;;39.79;17.60;100055.53;4962305;28;97877;-59
2022/06/22 13:17:43;;;;;;;;;;;;;;;39.92;17.02;100054.03;4964470;28;98357;-59
2022/06/22 13:24:22;;;;;;;;;;;;;;;40.26;16.97;100051.94;4960209;28;98476;-59
2022/06/22 13:27:17;;;;;;;;;;;;;;;40.40;16.87;100045.56;4944659;28;97993;-59
2022/06/22 13:30:19;;;;;;;;;;;;;;;40.37;16.91;100043.72;4968773;28;97921;-59
2022/06/22 13:33:36;;;;;;;;;;;;;;;40.38;17.06;100047.31;4965139;28;98461;-62
2022/06/22 13:36:38;;;;;;;;;;;;;;;40.41;17.22;100041.47;4963243;28;98094;-58
2022/06/22 13:39:58;;;;;;;;;;;;;;;40.27;16.90;100033.75;4961384;28;97967;-62
2022/06/22 13:43:08;;;;;;;;;;;;;;;39.85;17.62;100033.84;4942570;28;98011;-62
2022/06/22 13:46:32;;;;;;;;;;;;;;;39.71;16.91;100033.31;4945469;28;98702;-63
2022/06/22 13:49:35;;;;;;;;;;;;;;;39.34;17.63;100040.34;4959828;28;98170;-62
2022/06/22 13:52:54;;;;;;;;;;;;;;;38.93;17.59;100028.59;4936490;28;98080;-58
2022/06/22 13:55:59;;;;;;;;;;;;;;;38.40;17.71;100031.75;4947669;28;97967;-59
2022/06/22 13:59:12;;;;;;;;;;;;;;;37.95;18.16;100022.00;4948352;28;97778;-62
2022/06/22 14:02:26;;;;;;;;;;;;;;;37.54;18.08;100030.47;4950189;28;98543;-59
2022/06/22 14:05:20;;;;;;;;;;;;;;;37.27;18.33;100017.06;4945291;28;98308;-63
2022/06/22 14:08:33;;;;;;;;;;;;;;;37.11;18.86;100017.31;4945260;28;97669;-58
2022/06/22 14:11:49;;;;;;;;;;;;;;;36.88;18.89;100021.38;4947189;28;98196;-58
2022/06/22 14:15:09;;;;;;;;;;;;;;;36.59;18.84;100014.03;4959278;28;98271;-62
2022/06/22 14:18:30;;;;;;;;;;;;;;;36.34;18.93;100020.47;4930359;28;97727;-59
2022/06/22 14:21:58;;;;;;;;;;;;;;;36.12;19.16;100014.06;4944691;28;97896;-62
2022/06/22 14:25:01;;;;;;;;;;;;;;;35.94;19.25;100011.84;4964528;28;98856;-59
2022/06/22 14:28:14;;;;;;;;;;;;;;;35.78;19.26;100006.38;4954387;28;99133;-59
2022/06/22 14:31:35;;;;;;;;;;;;;;;35.60;19.77;100009.75;4938643;28;97717;-58
2022/06/22 14:34:41;;;;;;;;;;;;;;;35.37;20.01;100005.25;4935723;28;97905;-62
2022/06/22 14:37:45;;;;;;;;;;;;;;;35.27;20.06;100000.78;4965916;28;98499;-58
2022/06/22 14:40:58;;;;;;;;;;;;;;;35.18;19.94;99998.66;4967771;28;98042;-58
2022/06/22 14:44:09;;;;;;;;;;;;;;;35.03;20.19;99995.50;4928999;28;98021;-58
2022/06/22 14:47:29;;;;;;;;;;;;;;;34.85;20.35;99984.81;4945888;28;98060;-62
2022/06/22 14:50:43;;;;;;;;;;;;;;;34.57;20.22;99991.25;4925488;28;98267;-58
2022/06/22 14:54:16;;;;;;;;;;;;;;;34.34;20.57;99989.44;4975636;28;98360;-61
2022/06/22 14:57:11;;;;;;;;;;;;;;;34.10;20.90;99988.91;4986764;28;97996;-58
2022/06/22 15:00:22;;;;;;;;;;;;;;;33.92;20.22;99970.56;4996044;28;97801;-58
2022/06/22 15:03:25;;;;;;;;;;;;;;;33.83;20.40;99969.59;4972460;28;98675;-58
2022/06/22 15:06:52;;;;;;;;;;;;;;;33.83;20.89;99973.19;4957744;28;97906;-62
2022/06/22 15:10:11;;;;;;;;;;;;;;;33.83;20.52;99978.00;4969760;28;98017;-58
2022/06/22 15:13:18;;;;;;;;;;;;;;;33.79;20.93;99971.72;4953487;28;98014;-59
2022/06/22 15:16:29;;;;;;;;;;;;;;;33.71;21.11;99965.50;4964516;28;98136;-58
2022/06/22 15:19:39;;;;;;;;;;;;;;;33.63;21.29;99972.50;4978028;28;98978;-62
2022/06/22 15:22:41;;;;;;;;;;;;;;;33.54;21.42;99977.91;4956122;28;98108;-58
2022/06/22 15:26:00;;;;;;;;;;;;;;;33.41;21.43;99975.78;4957879;28;97797;-58
2022/06/22 15:28:53;;;;;;;;;;;;;;;33.31;21.56;99968.44;4947309;28;98852;-58
2022/06/22 15:32:26;;;;;;;;;;;;;;;33.24;21.84;99972.19;4968483;28;98363;-59
2022/06/22 15:35:45;;;;;;;;;;;;;;;33.14;21.71;99969.66;4980610;28;98301;-59
2022/06/22 15:38:59;;;;;;;;;;;;;;;33.07;21.75;99975.38;4970575;28;97724;-59
2022/06/22 15:42:11;;;;;;;;;;;;;;;33.01;21.60;99975.09;4969005;28;98856;-62
2022/06/22 15:45:30;;;;;;;;;;;;;;;32.91;21.63;99964.94;4970191;28;98167;-59
2022/06/22 15:48:34;;;;;;;;;;;;;;;32.82;21.88;99967.53;4947039;28;98606;-59
2022/06/22 15:51:44;;;;;;;;;;;;;;;32.64;21.96;99971.47;4954088;28;97852;-59
2022/06/22 15:54:57;;;;;;;;;;;;;;;32.44;22.50;99977.06;4982998;28;98223;-59
2022/06/22 15:57:59;;;;;;;;;;;;;;;32.20;22.70;99986.66;4970084;28;98745;-59
2022/06/22 16:01:16;;;;;;;;;;;;;;;32.03;22.77;99985.78;4958010;28;99356;-59
2022/06/22 16:04:44;;;;;;;;;;;;;;;31.96;22.99;99988.69;4963533;28;98138;-63
2022/06/22 16:08:11;;;;;;;;;;;;;;;31.84;23.01;99986.47;4966462;28;98392;-63
2022/06/22 16:15:29;;;;;;;;;;;;;;;31.66;23.32;99979.19;4912298;28;98051;-59
2022/06/22 16:18:44;;;;;;;;;;;;;;;31.57;23.20;99983.72;4861829;28;98078;-59
2022/06/22 16:21:51;;;;;;;;;;;;;;;31.47;23.56;99988.25;4902455;28;99387;-59
2022/06/22 16:25:10;;;;;;;;;;;;;;;31.40;23.50;99989.16;4976103;28;99604;-60
2022/06/22 16:28:30;;;;;;;;;;;;;;;31.25;23.87;99987.75;4978443;28;97387;-62
2022/06/22 16:31:35;;;;;;;;;;;;;;;31.10;23.99;99991.94;4978481;28;97583;-62
2022/06/22 16:34:50;;;;;;;;;;;;;;;30.94;24.01;99987.78;4978634;28;97642;-62
2022/06/22 16:38:04;;;;;;;;;;;;;;;30.83;23.88;99986.34;4986031;28;97650;-62
2022/06/22 16:41:34;;;;;;;;;;;;;;;30.70;23.92;99989.63;4981354;28;98913;-59
2022/06/22 16:44:53;;;;;;;;;;;;;;;30.57;24.45;99983.03;4996343;28;97210;-59
2022/06/22 16:47:57;;;;;;;;;;;;;;;30.43;24.36;99992.31;4994583;28;98376;-62
2022/06/22 16:51:06;;;;;;;;;;;;;;;30.32;24.80;99986.09;4957656;28;97377;-59
2022/06/22 16:54:31;;;;;;;;;;;;;;;30.24;24.38;99985.38;4958266;28;97559;-59
2022/06/22 16:57:47;;;;;;;;;;;;;;;30.12;24.87;99994.19;4976079;28;97853;-59